createdAt,value
2018-10-21T12:20:23.704Z,14.80
2018-10-21T12:22:52.106Z,14.80
2018-10-21T12:25:20.467Z,14.50
2018-10-21T12:27:48.590Z,14.70
2018-10-21T12:32:44.976Z,14.70
2018-10-21T12:35:13.268Z,14.70
2018-10-21T12:37:41.664Z,14.80
2018-10-21T12:40:10.339Z,14.80
2018-10-21T12:42:39.133Z,14.90
2018-10-21T12:45:09.763Z,15.00
2018-10-21T12:47:38.332Z,14.10
2018-10-21T12:50:07.246Z,14.90
2018-10-21T12:52:35.592Z,14.50
2018-10-21T12:55:04.626Z,14.30
2018-10-21T12:57:32.919Z,14.60
2018-10-21T13:00:01.199Z,14.40
2018-10-21T13:02:29.429Z,14.40
2018-10-21T13:04:57.692Z,14.30
2018-10-21T13:07:25.926Z,14.40
2018-10-21T13:09:54.168Z,14.40
2018-10-21T13:12:22.519Z,14.50
2018-10-21T13:14:50.739Z,14.40
2018-10-21T13:17:18.970Z,14.50
2018-10-21T13:19:47.280Z,14.40
2018-10-21T13:22:15.695Z,14.40
2018-10-21T13:24:43.858Z,14.30
2018-10-21T13:27:12.163Z,14.20
2018-10-21T13:29:40.458Z,14.20
2018-10-21T13:32:08.786Z,14.20
2018-10-21T13:34:37.029Z,14.10
2018-10-21T13:37:05.357Z,14.00
2018-10-21T13:39:33.612Z,14.20
2018-10-21T13:42:01.886Z,14.10
2018-10-21T13:44:30.105Z,14.10
2018-10-21T13:46:58.374Z,14.10
2018-10-21T13:49:26.595Z,14.10
2018-10-21T13:51:54.916Z,14.00
2018-10-21T13:54:23.073Z,14.00
2018-10-21T13:56:51.312Z,14.00
2018-10-21T13:59:19.717Z,14.00
2018-10-21T14:01:47.969Z,14.10
2018-10-21T14:04:16.365Z,14.00
2018-10-21T14:06:44.624Z,14.10
2018-10-21T14:09:13.601Z,14.00
2018-10-21T14:11:41.878Z,14.10
2018-10-21T14:14:11.062Z,14.00
2018-10-21T14:16:39.648Z,14.00
2018-10-21T14:19:08.364Z,13.90
2018-10-21T14:21:36.625Z,13.90
2018-10-21T14:24:05.172Z,13.80
2018-10-21T14:26:33.489Z,13.90
2018-10-21T14:29:01.786Z,14.00
2018-10-21T14:31:30.100Z,14.00
2018-10-21T14:33:58.313Z,14.00
2018-10-21T14:36:26.516Z,14.10
2018-10-21T14:38:54.781Z,14.00
2018-10-21T14:41:23.113Z,14.00
2018-10-21T14:43:51.433Z,13.90
2018-10-21T14:46:19.643Z,13.90
2018-10-21T14:48:48.765Z,13.90
2018-10-21T14:51:17.086Z,13.90
2018-10-21T14:53:45.346Z,13.90
2018-10-21T14:56:13.808Z,13.80
2018-10-21T14:58:41.928Z,13.90
2018-10-21T15:01:10.210Z,13.70
2018-10-21T15:03:38.522Z,13.70
2018-10-21T15:06:06.752Z,13.80
2018-10-21T15:08:34.931Z,13.90
2018-10-21T15:11:03.240Z,13.70
2018-10-21T15:13:31.466Z,13.70
2018-10-21T15:15:59.727Z,13.60
2018-10-21T15:18:27.965Z,13.60
2018-10-21T15:20:56.213Z,13.50
2018-10-21T15:23:26.483Z,13.70
2018-10-21T15:25:57.535Z,13.60
2018-10-21T15:28:25.790Z,13.60
2018-10-21T15:30:54.090Z,13.60
2018-10-21T15:33:22.336Z,13.60
2018-10-21T15:35:50.865Z,13.60
2018-10-21T15:38:19.160Z,13.50
2018-10-21T15:40:47.353Z,13.60
2018-10-21T15:43:15.677Z,13.60
2018-10-21T15:45:44.017Z,13.60
2018-10-21T15:48:12.342Z,13.60
2018-10-21T15:50:40.644Z,13.70
2018-10-21T15:53:08.847Z,13.60
2018-10-21T15:55:37.157Z,13.50
2018-10-21T15:58:05.521Z,13.40
2018-10-21T16:00:33.784Z,13.30
2018-10-21T16:03:02.099Z,13.40
2018-10-21T16:05:30.332Z,13.20
2018-10-21T16:07:58.660Z,13.10
2018-10-21T16:10:26.870Z,12.80
2018-10-21T16:12:55.148Z,12.80
2018-10-21T16:15:23.449Z,12.70
2018-10-21T16:17:51.730Z,12.70
2018-10-21T16:20:20.156Z,12.60
2018-10-21T16:22:48.282Z,12.50
2018-10-21T16:25:16.581Z,12.30
2018-10-21T16:27:44.846Z,12.20
2018-10-21T16:30:14.347Z,12.10
2018-10-21T16:32:43.314Z,12.10
2018-10-21T16:35:12.019Z,11.90
2018-10-21T16:37:40.649Z,11.80
2018-10-21T16:40:11.749Z,11.70
2018-10-21T16:42:40.125Z,11.70
2018-10-21T16:45:09.396Z,11.70
2018-10-21T16:47:38.324Z,11.60
2018-10-21T16:50:13.224Z,11.60
2018-10-21T16:52:42.701Z,11.40
2018-10-21T16:55:11.654Z,11.30
2018-10-21T16:57:40.037Z,11.10
2018-10-21T17:00:13.060Z,11.20
2018-10-21T17:02:41.629Z,11.20
2018-10-21T17:05:10.237Z,11.20
2018-10-21T17:07:38.567Z,11.20
2018-10-21T17:10:08.512Z,11.10
2018-10-21T17:12:36.612Z,11.00
2018-10-21T17:15:05.963Z,10.90
2018-10-21T17:17:34.433Z,10.80
2018-10-21T17:20:02.818Z,10.80
2018-10-21T17:22:31.136Z,10.90
2018-10-21T17:24:59.588Z,10.80
2018-10-21T17:27:27.791Z,10.80
2018-10-21T17:29:56.037Z,10.70
2018-10-21T17:32:24.343Z,10.80
2018-10-21T17:34:52.593Z,10.70
2018-10-21T17:37:20.912Z,10.60
2018-10-21T17:39:49.213Z,10.60
2018-10-21T17:42:17.706Z,10.50
2018-10-21T17:44:45.948Z,10.50
2018-10-21T17:47:14.242Z,10.60
2018-10-21T17:49:42.523Z,10.70
2018-10-21T17:52:10.963Z,10.60
2018-10-21T17:54:39.133Z,10.60
2018-10-21T17:57:07.480Z,10.40
2018-10-21T17:59:36.054Z,10.20
2018-10-21T18:02:04.614Z,10.30
2018-10-21T18:04:32.877Z,10.30
2018-10-21T18:07:01.298Z,10.10
2018-10-21T18:09:29.566Z,10.00
2018-10-21T18:11:57.884Z,9.90
2018-10-21T18:14:26.189Z,9.80
2018-10-21T18:16:54.462Z,9.60
2018-10-21T18:19:22.881Z,9.50
2018-10-21T18:21:51.176Z,9.50
2018-10-21T18:24:19.650Z,9.50
2018-10-21T18:26:47.940Z,9.50
2018-10-21T18:29:16.287Z,9.60
2018-10-21T18:31:44.651Z,9.40
2018-10-21T18:34:12.985Z,9.30
2018-10-21T18:36:41.244Z,9.20
2018-10-21T18:39:10.323Z,9.10
2018-10-21T18:41:38.618Z,9.10
2018-10-21T18:44:07.558Z,9.00
2018-10-21T18:46:35.924Z,8.80
2018-10-21T18:49:04.337Z,8.90
2018-10-21T18:51:32.610Z,8.70
2018-10-21T18:54:00.864Z,8.70
2018-10-21T18:56:29.179Z,8.50
2018-10-21T18:58:57.583Z,8.50
2018-10-21T19:01:25.875Z,8.60
2018-10-21T19:03:54.200Z,8.40
2018-10-21T19:06:22.452Z,8.20
2018-10-21T19:08:50.711Z,8.20
2018-10-21T19:11:18.982Z,8.00
2018-10-21T19:13:47.330Z,7.90
2018-10-21T19:16:15.641Z,8.00
2018-10-21T19:18:44.158Z,8.00
2018-10-21T19:21:12.451Z,7.80
2018-10-21T19:23:40.696Z,7.70
2018-10-21T19:26:08.955Z,7.80
2018-10-21T19:28:37.239Z,7.80
2018-10-21T19:31:06.242Z,7.50
2018-10-21T19:33:34.524Z,7.50
2018-10-21T19:36:02.810Z,7.40
2018-10-21T19:38:31.067Z,7.30
2018-10-21T19:40:59.369Z,7.20
2018-10-21T19:43:27.670Z,7.40
2018-10-21T19:45:55.920Z,7.40
2018-10-21T19:48:24.207Z,7.40
2018-10-21T19:50:52.418Z,7.30
2018-10-21T19:53:20.657Z,7.30
2018-10-21T19:55:48.946Z,7.20
2018-10-21T19:58:17.298Z,7.10
2018-10-21T20:00:45.517Z,7.00
2018-10-21T20:03:13.840Z,7.10
2018-10-21T20:05:42.106Z,7.00
2018-10-21T20:08:10.430Z,7.00
2018-10-21T20:10:38.694Z,7.10
2018-10-21T20:13:06.998Z,7.00
2018-10-21T20:15:35.205Z,6.90
2018-10-21T20:18:03.786Z,6.90
2018-10-21T20:20:32.025Z,6.80
2018-10-21T20:23:00.321Z,6.80
2018-10-21T20:25:28.612Z,6.80
2018-10-21T20:27:56.898Z,6.90
2018-10-21T20:30:25.146Z,6.80
2018-10-21T20:32:53.500Z,6.70
2018-10-21T20:35:21.733Z,6.70
2018-10-21T20:37:50.019Z,6.70
2018-10-21T20:40:18.394Z,6.60
2018-10-21T20:42:46.804Z,6.40
2018-10-21T20:45:15.060Z,6.30
2018-10-21T20:47:43.365Z,6.30
2018-10-21T20:50:11.622Z,6.30
2018-10-21T20:52:39.871Z,6.20
2018-10-21T20:55:08.936Z,6.20
2018-10-21T20:57:37.164Z,6.10
2018-10-21T21:00:05.848Z,6.10
2018-10-21T21:02:34.142Z,6.00
2018-10-21T21:05:02.515Z,5.90
2018-10-21T21:07:30.797Z,6.00
2018-10-21T21:09:59.046Z,6.00
2018-10-21T21:12:27.284Z,6.20
2018-10-21T21:14:55.547Z,6.10
2018-10-21T21:17:23.765Z,6.10
2018-10-21T21:19:51.970Z,6.00
2018-10-21T21:22:20.279Z,5.90
2018-10-21T21:24:48.424Z,5.90
2018-10-21T21:27:16.696Z,5.80
2018-10-21T21:29:44.973Z,5.70
2018-10-21T21:32:13.238Z,5.70
2018-10-21T21:34:41.539Z,5.80
2018-10-21T21:37:09.760Z,5.80
2018-10-21T21:39:37.971Z,5.70
2018-10-21T21:42:06.241Z,5.70
2018-10-21T21:44:34.501Z,5.70
2018-10-21T21:47:02.784Z,5.70
2018-10-21T21:49:31.025Z,5.70
2018-10-21T21:51:59.274Z,5.60
2018-10-21T21:54:27.535Z,5.60
2018-10-21T21:56:55.707Z,5.60
2018-10-21T21:59:23.952Z,5.60
2018-10-21T22:01:52.197Z,5.50
2018-10-21T22:04:20.402Z,5.60
2018-10-21T22:06:48.831Z,5.60
2018-10-21T22:09:17.040Z,5.60
2018-10-21T22:11:45.288Z,5.60
2018-10-21T22:14:13.557Z,5.70
2018-10-21T22:16:41.857Z,5.70
2018-10-21T22:19:10.098Z,5.80
2018-10-21T22:21:38.828Z,5.60
2018-10-21T22:24:08.338Z,5.60
2018-10-21T22:26:36.615Z,5.60
2018-10-21T22:29:05.074Z,5.50
2018-10-21T22:31:33.357Z,5.50
2018-10-21T22:34:01.666Z,5.50
2018-10-21T22:36:29.916Z,5.50
2018-10-21T22:38:58.160Z,5.40
2018-10-21T22:41:26.440Z,5.30
2018-10-21T22:43:54.629Z,5.30
2018-10-21T22:46:22.936Z,5.30
2018-10-21T22:48:51.154Z,5.40
2018-10-21T22:51:19.403Z,5.30
2018-10-21T22:53:47.634Z,5.30
2018-10-21T22:56:16.057Z,5.20
2018-10-21T22:58:44.267Z,5.20
2018-10-21T23:01:12.596Z,5.20
2018-10-21T23:03:40.855Z,5.20
2018-10-21T23:06:09.085Z,5.20
2018-10-21T23:08:37.304Z,5.20
2018-10-21T23:11:05.496Z,5.30
2018-10-21T23:13:33.733Z,5.20
2018-10-21T23:16:02.053Z,5.20
2018-10-21T23:18:30.495Z,5.10
2018-10-21T23:20:58.703Z,5.10
2018-10-21T23:23:26.973Z,5.10
2018-10-21T23:25:55.256Z,5.10
2018-10-21T23:28:23.485Z,5.10
2018-10-21T23:30:51.816Z,5.10
2018-10-21T23:33:20.076Z,5.10
2018-10-21T23:35:48.350Z,5.10
2018-10-21T23:38:16.619Z,5.10
2018-10-21T23:40:44.800Z,5.10
2018-10-21T23:43:13.004Z,5.20
2018-10-21T23:45:41.223Z,5.00
2018-10-21T23:48:09.466Z,4.90
2018-10-21T23:50:37.660Z,4.80
2018-10-21T23:53:06.349Z,4.80
2018-10-21T23:55:34.523Z,4.80
2018-10-21T23:58:02.790Z,4.70
